Airfield :
LOGIN :

Register | Disclaimer

   EN    FR    IT 

 










Legend :    VFR   Marginal VFR   IFR   Intensive IFR   Very Intensive IFR
Visi :
Ceiling :
>= 8 km
>= 3000ft
5 to 8 km
1000 to 3000 ft
1500m to 5 km
500 to 1000 ft
800 to 1500m
200 to 500 ft
< 800m
< 200 ft
Symbols :   Thunderstorms  Fog  Heavy snow  Heavy precipitations  Wind > 20 kt
SIGMETs :     Misc.  Thunderstorms  Icing  Turbulence  Mountain Waves  Volcanic Ashes







- Airport Elevation : 919 ft
- IATA code : AZR


DAUA - Touat Cheikh Sidi Mohamed Belk

CURRENT METAR :
  • 180600Z 05015KT CAVOK 29/01 Q1011

EXPIRED METARs :
  • 180500Z 06015KT CAVOK 30/M00 Q1011
  • 180400Z 05014KT CAVOK 30/M00 Q1011

TAF TAF DAUA
Valid from the 18 at 06:00 until the 19 at 06:00 UTC


180500Z 1806/1906 06012KT CAVOK
BECMG 1807/1810 06022KT
PROB40 1810/1818 5000 DRSA
BECMG 1821/1824 04012KT
No reported NOTAMs for that airfield.



MET'MAP, your aeronautical weather chart ! - Copyright ORBIFLY December 2007 - Disclaimer

ORBIFLY MET'MAP TEAM :

Programming & Development : Alexandra Zaïnal
Concept & Development : Baudouin d'Aumeries
Co-Development & Prog : Marc-Olivier Méhu
Technical & hardware support : Manuel Goepfert

Contact : metmap@orbifly.com




SOURCES & CREDITS :

   NOAA